Time;durP1;ratioP1;P1;durP2;ratioP2;P2;SDS_P1;SDS_P2;PMS_P1;PMS_P2;Temp;Humidity;BMP_temperature;BMP_pressure;BME280_temperature;BME280_humidity;BME280_pressure;Samples;Min_cycle;Max_cycle;Signal;HPM_P1;HPM_P2
2020/12/30 00:01:10;;;;;;;;;;;;;;;5.96;69.28;96776.49;1647714;85;42184;-86
2020/12/30 00:03:56;;;;;;;;;;;;;;;5.91;69.37;96770.37;1692015;84;24693;-86
2020/12/30 00:06:42;;;;;;;;;;;;;;;5.93;69.42;96771.55;1690376;84;20409;-85
2020/12/30 00:09:29;;;;;;;;;;;;;;;5.91;69.50;96770.84;1694022;84;25751;-86
2020/12/30 00:12:14;;;;;;;;;;;;;;;5.92;69.58;96770.72;1692926;84;22139;-86
2020/12/30 00:15:02;;;;;;;;;;;;;;;5.91;69.65;96769.06;1688348;84;26249;-86
2020/12/30 00:17:48;;;;;;;;;;;;;;;5.89;69.71;96761.39;1695966;84;24901;-87
2020/12/30 00:20:35;;;;;;;;;;;;;;;5.86;69.81;96755.59;1691895;84;20505;-86
2020/12/30 00:23:22;;;;;;;;;;;;;;;5.84;69.87;96757.00;1696035;83;25077;-86
2020/12/30 00:26:09;;;;;;;;;;;;;;;5.85;69.91;96759.95;1694859;84;22106;-86
2020/12/30 00:28:58;;;;;;;;;;;;;;;5.91;69.98;96756.56;1753115;81;26296;-86
2020/12/30 00:31:44;;;;;;;;;;;;;;;5.95;70.03;96757.49;1754238;81;24643;-86
2020/12/30 00:34:30;;;;;;;;;;;;;;;5.98;70.08;96757.27;1705757;83;20305;-86
2020/12/30 00:37:16;;;;;;;;;;;;;;;6.04;70.13;96768.95;1694373;83;24919;-86
2020/12/30 00:40:06;;;;;;;;;;;;;;;6.03;70.19;96761.63;1691628;84;22116;-85
2020/12/30 00:42:53;;;;;;;;;;;;;;;6.00;70.21;96764.45;1753703;81;26112;-86
2020/12/30 00:45:39;;;;;;;;;;;;;;;6.05;70.25;96766.24;1755614;81;25560;-86
2020/12/30 00:48:25;;;;;;;;;;;;;;;6.09;70.28;96757.73;1754285;81;20360;-86
2020/12/30 00:51:11;;;;;;;;;;;;;;;6.09;70.32;96759.85;1695969;83;24916;-87
2020/12/30 00:54:00;;;;;;;;;;;;;;;6.12;70.36;96758.77;1753656;81;23251;-86
2020/12/30 00:56:46;;;;;;;;;;;;;;;6.08;70.38;96754.30;1752795;81;26155;-86
2020/12/30 00:59:32;;;;;;;;;;;;;;;6.09;70.39;96753.83;1754165;81;24608;-86
2020/12/30 01:02:18;;;;;;;;;;;;;;;6.08;70.40;96755.59;1751281;80;20369;-86
2020/12/30 01:05:05;;;;;;;;;;;;;;;6.06;70.41;96761.37;1698902;83;24907;-86
2020/12/30 01:07:51;;;;;;;;;;;;;;;6.12;70.42;96760.89;1705656;83;22272;-86
2020/12/30 01:10:39;;;;;;;;;;;;;;;6.05;70.42;96753.26;1671916;85;26160;-86
2020/12/30 01:13:25;;;;;;;;;;;;;;;6.04;70.42;96752.07;1753986;81;25622;-86
2020/12/30 01:15:59;;;;;;;;;;;;;;;5.95;70.43;96750.17;1752601;81;20333;-86
2020/12/30 01:18:45;;;;;;;;;;;;;;;5.87;70.44;96752.09;1755642;81;25066;-86
2020/12/30 01:21:31;;;;;;;;;;;;;;;5.83;70.49;96761.03;1754325;81;22950;-86
2020/12/30 01:24:17;;;;;;;;;;;;;;;5.78;70.50;96763.16;1754560;81;27070;-85
2020/12/30 01:27:03;;;;;;;;;;;;;;;5.78;70.52;96766.55;1755251;81;25566;-86
2020/12/30 01:29:49;;;;;;;;;;;;;;;5.79;70.54;96773.41;1753050;81;20287;-86
2020/12/30 01:32:36;;;;;;;;;;;;;;;5.83;70.60;96762.33;1753205;81;24653;-86
2020/12/30 01:35:22;;;;;;;;;;;;;;;5.87;70.60;96757.28;1753650;81;22204;-85
2020/12/30 01:38:10;;;;;;;;;;;;;;;5.93;70.62;96758.58;1752724;81;27288;-86
2020/12/30 01:40:56;;;;;;;;;;;;;;;6.00;70.69;96754.56;1755548;81;24057;-86
2020/12/30 01:46:19;;;;;;;;;;;;;;;6.15;70.78;96748.98;1753754;80;25680;-86
2020/12/30 01:49:05;;;;;;;;;;;;;;;6.15;70.81;96736.00;1754629;81;22945;-86
2020/12/30 01:51:51;;;;;;;;;;;;;;;6.18;70.85;96744.83;1756107;80;26159;-86
2020/12/30 01:54:37;;;;;;;;;;;;;;;6.12;70.87;96732.33;1699164;83;25328;-86
2020/12/30 01:57:23;;;;;;;;;;;;;;;6.05;70.87;96733.78;1695340;84;20284;-86
2020/12/30 02:00:09;;;;;;;;;;;;;;;6.04;70.87;96734.72;1754749;81;25039;-86
2020/12/30 02:02:55;;;;;;;;;;;;;;;6.06;70.86;96731.52;1754886;81;22101;-86
2020/12/30 02:05:41;;;;;;;;;;;;;;;6.08;70.89;96739.19;1755075;81;26144;-86
2020/12/30 02:08:27;;;;;;;;;;;;;;;6.11;70.88;96737.67;1705458;83;24581;-86
2020/12/30 02:11:13;;;;;;;;;;;;;;;6.16;70.91;96735.06;1720583;82;20276;-86
2020/12/30 02:13:59;;;;;;;;;;;;;;;6.24;70.91;96727.47;1674257;85;25123;-86
2020/12/30 02:16:45;;;;;;;;;;;;;;;6.19;70.94;96735.27;1692144;83;22216;-86
2020/12/30 02:19:31;;;;;;;;;;;;;;;6.09;70.94;96732.59;1702407;83;26103;-86
2020/12/30 02:22:17;;;;;;;;;;;;;;;6.18;70.95;96735.74;1671525;83;25499;-86
2020/12/30 02:25:03;;;;;;;;;;;;;;;6.24;70.95;96728.77;1699359;83;20481;-86
2020/12/30 02:27:49;;;;;;;;;;;;;;;6.15;70.99;96730.81;1675439;85;25750;-86
2020/12/30 02:30:35;;;;;;;;;;;;;;;6.13;71.00;96731.39;1698706;83;22116;-86
2020/12/30 02:33:21;;;;;;;;;;;;;;;6.23;70.99;96727.11;1685916;84;26129;-86
2020/12/30 02:36:07;;;;;;;;;;;;;;;6.35;71.00;96727.91;1672416;84;25645;-86
2020/12/30 02:38:55;;;;;;;;;;;;;;;6.39;71.04;96716.78;1706933;83;20176;-86
2020/12/30 02:41:41;;;;;;;;;;;;;;;6.34;71.07;96718.93;1674914;85;24912;-86
2020/12/30 02:44:27;;;;;;;;;;;;;;;6.24;71.07;96718.84;1704862;83;21374;-86
2020/12/30 02:47:13;;;;;;;;;;;;;;;6.28;71.07;96723.67;1671834;85;25567;-86
2020/12/30 02:49:59;;;;;;;;;;;;;;;6.45;71.06;96725.39;1693203;84;25585;-86
2020/12/30 02:52:45;;;;;;;;;;;;;;;6.54;71.09;96724.67;1701268;84;20286;-86
2020/12/30 02:55:31;;;;;;;;;;;;;;;6.46;71.11;96716.18;1670214;85;24927;-86
2020/12/30 02:58:18;;;;;;;;;;;;;;;6.49;71.11;96715.92;1671583;85;23229;-87
2020/12/30 03:01:04;;;;;;;;;;;;;;;6.64;71.14;96716.47;1708182;83;26348;-86
2020/12/30 03:03:50;;;;;;;;;;;;;;;6.67;71.16;96718.33;1670912;84;24631;-86
2020/12/30 03:06:35;;;;;;;;;;;;;;;6.67;71.19;96717.51;1698999;83;20549;-86
2020/12/30 03:09:21;;;;;;;;;;;;;;;6.63;71.19;96719.54;1675199;85;24869;-85
2020/12/30 03:12:10;;;;;;;;;;;;;;;6.60;71.18;96731.97;1704350;83;22117;-85
2020/12/30 03:14:55;;;;;;;;;;;;;;;6.39;71.17;96728.48;1689466;84;26121;-85
2020/12/30 03:17:41;;;;;;;;;;;;;;;6.22;71.15;96731.12;1704292;83;24925;-86
2020/12/30 03:20:27;;;;;;;;;;;;;;;6.27;71.10;96731.11;1690696;84;20879;-86
2020/12/30 03:23:13;;;;;;;;;;;;;;;6.37;71.10;96725.20;1687167;83;24778;-86
2020/12/30 03:25:59;;;;;;;;;;;;;;;6.40;71.14;96717.14;1762279;80;22164;-86
2020/12/30 03:28:45;;;;;;;;;;;;;;;6.37;71.17;96711.73;1711264;83;26133;-86
2020/12/30 03:31:32;;;;;;;;;;;;;;;6.45;71.20;96719.72;1758974;81;25447;-85
2020/12/30 03:34:18;;;;;;;;;;;;;;;6.45;71.25;96718.89;1760739;81;20324;-84
2020/12/30 03:37:04;;;;;;;;;;;;;;;6.40;71.27;96710.17;1758587;81;24928;-85
2020/12/30 03:39:50;;;;;;;;;;;;;;;6.42;71.31;96708.77;1703947;83;22119;-85
2020/12/30 03:42:36;;;;;;;;;;;;;;;6.36;71.32;96710.55;1683017;83;26133;-85
2020/12/30 03:45:22;;;;;;;;;;;;;;;6.30;71.33;96707.97;1761602;79;24764;-85
2020/12/30 03:48:08;;;;;;;;;;;;;;;6.27;71.35;96712.12;1766758;79;20665;-86
2020/12/30 03:51:00;;;;;;;;;;;;;;;6.19;71.37;96708.83;1756947;81;25078;-86
2020/12/30 03:53:46;;;;;;;;;;;;;;;6.06;71.39;96697.75;1702364;83;22375;-86
2020/12/30 03:56:32;;;;;;;;;;;;;;;6.04;71.39;96704.86;1710439;83;26118;-87
2020/12/30 03:59:18;;;;;;;;;;;;;;;5.95;71.40;96712.53;1702377;83;24796;-85
2020/12/30 04:02:04;;;;;;;;;;;;;;;6.01;71.40;96710.75;1766832;81;20367;-85
2020/12/30 04:04:50;;;;;;;;;;;;;;;5.93;71.42;96709.25;1698738;83;24874;-86
2020/12/30 04:07:35;;;;;;;;;;;;;;;5.87;71.45;96714.45;1676512;84;22163;-86
2020/12/30 04:10:22;;;;;;;;;;;;;;;5.93;71.46;96716.56;1680396;85;25533;-86
2020/12/30 04:13:08;;;;;;;;;;;;;;;5.91;71.47;96709.36;1701880;84;24642;-85
2020/12/30 04:15:54;;;;;;;;;;;;;;;5.85;71.50;96713.23;1763030;81;20690;-86
2020/12/30 04:18:40;;;;;;;;;;;;;;;5.99;71.51;96710.06;1712026;83;26247;-86
2020/12/30 04:21:26;;;;;;;;;;;;;;;6.13;71.55;96700.22;1708384;83;22308;-87
2020/12/30 04:24:12;;;;;;;;;;;;;;;6.11;71.62;96698.72;1706377;82;25391;-86
2020/12/30 04:26:58;;;;;;;;;;;;;;;6.16;71.65;96694.80;1698519;83;24693;-86
2020/12/30 04:29:44;;;;;;;;;;;;;;;6.12;71.67;96690.78;1693135;84;20271;-87
2020/12/30 04:32:33;;;;;;;;;;;;;;;6.20;71.69;96705.29;1670604;85;25137;-86
2020/12/30 04:35:18;;;;;;;;;;;;;;;6.37;71.69;96712.20;1706999;83;22155;-86
2020/12/30 04:38:09;;;;;;;;;;;;;;;6.45;71.74;96704.60;1705868;83;26145;-86
2020/12/30 04:40:54;;;;;;;;;;;;;;;6.39;71.74;96707.22;1707161;83;24565;-86
2020/12/30 04:43:41;;;;;;;;;;;;;;;6.33;71.75;96708.21;1706529;83;20404;-86
2020/12/30 04:46:27;;;;;;;;;;;;;;;6.34;71.73;96717.16;1747995;81;25399;-86
2020/12/30 04:49:13;;;;;;;;;;;;;;;6.33;71.72;96722.50;1754448;81;22207;-86
2020/12/30 04:52:00;;;;;;;;;;;;;;;6.33;71.69;96727.70;1697632;83;26141;-87
2020/12/30 04:54:46;;;;;;;;;;;;;;;6.36;71.71;96737.83;1698733;83;24854;-87
2020/12/30 04:57:32;;;;;;;;;;;;;;;6.28;71.73;96735.36;1672297;84;20212;-87
2020/12/30 05:00:18;;;;;;;;;;;;;;;6.24;71.72;96743.52;1672152;85;24875;-88
2020/12/30 05:03:05;;;;;;;;;;;;;;;6.22;71.74;96742.34;1688817;84;22133;-87
2020/12/30 05:05:52;;;;;;;;;;;;;;;6.22;71.75;96742.80;1754078;81;25722;-87
2020/12/30 05:08:38;;;;;;;;;;;;;;;6.27;71.75;96738.90;1753460;81;24633;-87
2020/12/30 05:11:24;;;;;;;;;;;;;;;6.33;71.76;96736.79;1698400;83;20618;-87
2020/12/30 05:14:14;;;;;;;;;;;;;;;6.32;71.79;96739.86;1696772;83;24906;-88
2020/12/30 05:17:00;;;;;;;;;;;;;;;6.28;71.83;96744.45;1694254;83;22163;-87
2020/12/30 05:19:46;;;;;;;;;;;;;;;6.23;71.84;96736.67;1689881;84;26204;-87
2020/12/30 05:22:32;;;;;;;;;;;;;;;6.23;71.85;96747.06;1680897;85;24422;-88
2020/12/30 05:25:23;;;;;;;;;;;;;;;6.28;71.86;96747.05;1753495;80;20275;-88
2020/12/30 05:28:09;;;;;;;;;;;;;;;6.41;71.88;96747.37;1755232;81;24973;-87
2020/12/30 05:30:55;;;;;;;;;;;;;;;6.51;71.92;96746.98;1753747;80;22108;-87
2020/12/30 05:33:41;;;;;;;;;;;;;;;6.58;71.95;96748.16;1699812;83;27246;-87
2020/12/30 05:36:28;;;;;;;;;;;;;;;6.67;71.96;96749.52;1674921;85;24632;-87
2020/12/30 05:39:14;;;;;;;;;;;;;;;6.75;71.99;96750.69;1671642;85;20266;-87
2020/12/30 05:42:00;;;;;;;;;;;;;;;6.74;72.01;96747.26;1670423;85;25171;-87
2020/12/30 05:44:47;;;;;;;;;;;;;;;6.77;72.01;96759.99;1753040;81;22488;-87
2020/12/30 05:47:33;;;;;;;;;;;;;;;6.81;72.01;96749.72;1754519;81;26202;-88
2020/12/30 05:50:19;;;;;;;;;;;;;;;6.81;72.06;96757.52;1754532;81;24621;-87
2020/12/30 05:53:05;;;;;;;;;;;;;;;6.87;72.07;96761.39;1756291;81;20509;-88
2020/12/30 05:55:51;;;;;;;;;;;;;;;6.87;72.08;96758.80;1753076;81;24150;-88
2020/12/30 05:58:38;;;;;;;;;;;;;;;6.84;72.13;96755.95;1701513;83;22137;-89
2020/12/30 06:01:24;;;;;;;;;;;;;;;6.80;72.19;96755.86;1702885;83;26149;-89
2020/12/30 06:04:10;;;;;;;;;;;;;;;6.69;72.21;96761.11;1752701;81;24797;-89
2020/12/30 06:06:57;;;;;;;;;;;;;;;6.68;72.25;96759.45;1753475;81;20334;-89
2020/12/30 06:09:43;;;;;;;;;;;;;;;6.63;72.30;96764.20;1705910;83;24930;-88
2020/12/30 06:12:29;;;;;;;;;;;;;;;6.61;72.36;96768.20;1699177;83;22219;-88
2020/12/30 06:15:15;;;;;;;;;;;;;;;6.60;72.41;96761.86;1673659;84;27109;-89
2020/12/30 06:18:01;;;;;;;;;;;;;;;6.52;72.49;96764.23;1754441;80;24778;-88
2020/12/30 06:20:47;;;;;;;;;;;;;;;6.47;72.55;96762.48;1755686;80;20434;-88
2020/12/30 06:23:33;;;;;;;;;;;;;;;6.47;72.60;96767.67;1752874;81;24949;-89
2020/12/30 06:26:19;;;;;;;;;;;;;;;6.48;72.65;96770.63;1759763;81;22103;-88
2020/12/30 06:29:06;;;;;;;;;;;;;;;6.48;72.71;96771.45;1760109;81;26367;-88
2020/12/30 06:31:52;;;;;;;;;;;;;;;6.48;72.77;96780.55;1761392;81;24696;-88
2020/12/30 06:34:39;;;;;;;;;;;;;;;6.52;72.83;96785.85;1759098;81;20349;-89
2020/12/30 06:37:25;;;;;;;;;;;;;;;6.45;72.92;96782.55;1761022;81;24976;-88
2020/12/30 06:40:11;;;;;;;;;;;;;;;6.42;72.98;96784.11;1706857;82;22379;-88
2020/12/30 06:42:44;;;;;;;;;;;;;;;6.43;73.02;96780.09;1706149;83;26192;-88
2020/12/30 06:45:30;;;;;;;;;;;;;;;6.41;73.10;96788.48;1679764;85;24702;-88
2020/12/30 06:48:16;;;;;;;;;;;;;;;6.38;73.15;96782.23;1685162;84;20297;-89
2020/12/30 06:51:03;;;;;;;;;;;;;;;6.38;73.20;96785.31;1707921;82;24976;-88
2020/12/30 06:53:49;;;;;;;;;;;;;;;6.42;73.26;96782.81;1704099;83;22149;-89
2020/12/30 06:56:35;;;;;;;;;;;;;;;6.50;73.34;96792.93;1677600;83;27111;-89
2020/12/30 06:59:21;;;;;;;;;;;;;;;6.48;73.42;96789.65;1688756;84;24768;-88
2020/12/30 07:02:08;;;;;;;;;;;;;;;6.47;73.47;96798.39;1705688;83;20283;-88
2020/12/30 07:04:56;;;;;;;;;;;;;;;6.47;73.53;96804.88;1705396;82;20240;-88
2020/12/30 07:07:42;;;;;;;;;;;;;;;6.44;73.60;96812.91;1680802;83;22132;-89
2020/12/30 07:10:28;;;;;;;;;;;;;;;6.38;73.66;96805.63;1705540;83;26286;-90
2020/12/30 07:13:15;;;;;;;;;;;;;;;6.30;73.72;96799.72;1680266;85;24764;-89
2020/12/30 07:16:01;;;;;;;;;;;;;;;6.30;73.77;96808.81;1678717;83;20551;-88
2020/12/30 07:18:47;;;;;;;;;;;;;;;6.27;73.82;96801.74;1697488;84;24692;-88
2020/12/30 07:21:34;;;;;;;;;;;;;;;6.27;73.89;96799.94;1698075;84;22148;-89
2020/12/30 07:24:20;;;;;;;;;;;;;;;6.24;73.94;96798.90;1688611;84;26348;-88
2020/12/30 07:27:06;;;;;;;;;;;;;;;6.32;74.00;96803.50;1697842;84;25353;-89
2020/12/30 07:29:52;;;;;;;;;;;;;;;6.37;74.07;96803.13;1699838;84;20287;-89
2020/12/30 07:32:40;;;;;;;;;;;;;;;6.42;74.14;96793.20;1697803;84;24910;-89
2020/12/30 07:35:29;;;;;;;;;;;;;;;6.43;74.19;96793.56;1696013;84;23149;-89
2020/12/30 07:38:17;;;;;;;;;;;;;;;6.46;74.26;96787.63;1701939;83;26212;-89
2020/12/30 07:41:03;;;;;;;;;;;;;;;6.53;74.30;96794.00;1702543;83;24090;-89
2020/12/30 07:43:49;;;;;;;;;;;;;;;6.57;74.35;96784.18;1702819;83;20325;-89
2020/12/30 07:46:35;;;;;;;;;;;;;;;6.56;74.43;96786.42;1707476;82;25783;-89
2020/12/30 07:49:21;;;;;;;;;;;;;;;6.56;74.49;96793.75;1702035;83;22166;-89
2020/12/30 07:52:07;;;;;;;;;;;;;;;6.66;74.53;96788.16;1706451;83;27217;-88
2020/12/30 07:54:53;;;;;;;;;;;;;;;6.71;74.58;96784.71;1674182;85;24838;-88
2020/12/30 07:57:41;;;;;;;;;;;;;;;6.78;74.62;96787.64;1706251;83;20314;-90
2020/12/30 08:00:27;;;;;;;;;;;;;;;6.80;74.68;96788.36;1693642;84;25054;-89
2020/12/30 08:03:14;;;;;;;;;;;;;;;6.85;74.72;96790.58;1665577;85;22855;-90
2020/12/30 08:06:01;;;;;;;;;;;;;;;6.91;74.78;96798.72;1667847;85;26112;-89
2020/12/30 08:08:47;;;;;;;;;;;;;;;6.97;74.80;96804.72;1701394;83;24808;-89
2020/12/30 08:11:36;;;;;;;;;;;;;;;6.98;74.83;96800.35;1678064;85;20554;-89
2020/12/30 08:14:22;;;;;;;;;;;;;;;7.03;74.85;96809.43;1689363;84;24973;-90
2020/12/30 08:17:09;;;;;;;;;;;;;;;7.09;74.88;96810.70;1703434;82;22156;-89
2020/12/30 08:19:55;;;;;;;;;;;;;;;7.08;74.91;96805.14;1675509;85;26348;-89
2020/12/30 08:22:41;;;;;;;;;;;;;;;7.04;74.95;96811.05;1703377;83;24586;-89
2020/12/30 08:25:28;;;;;;;;;;;;;;;7.01;74.96;96819.59;1671403;84;20308;-89
2020/12/30 08:28:18;;;;;;;;;;;;;;;7.02;74.98;96819.48;1750588;81;25841;-89
2020/12/30 08:31:04;;;;;;;;;;;;;;;7.04;74.99;96824.06;1702698;83;22386;-89
2020/12/30 08:33:51;;;;;;;;;;;;;;;7.03;75.01;96824.20;1699846;83;27183;-89
2020/12/30 08:36:41;;;;;;;;;;;;;;;7.07;75.04;96832.10;1699273;83;24596;-88
2020/12/30 08:39:30;;;;;;;;;;;;;;;7.10;75.06;96831.37;1704660;83;20286;-89
2020/12/30 08:42:16;;;;;;;;;;;;;;;7.13;75.06;96835.03;1751227;80;24955;-89
2020/12/30 08:45:04;;;;;;;;;;;;;;;7.14;75.11;96827.59;1751149;81;22236;-90
2020/12/30 08:47:53;;;;;;;;;;;;;;;7.17;75.12;96833.47;1747421;81;26176;-89
2020/12/30 08:50:39;;;;;;;;;;;;;;;7.22;75.13;96833.92;1699116;83;25644;-90
2020/12/30 08:53:26;;;;;;;;;;;;;;;7.25;75.16;96831.08;1716711;82;20306;-90
2020/12/30 08:56:13;;;;;;;;;;;;;;;7.30;75.17;96831.06;1671881;85;25083;-90
2020/12/30 08:58:49;;;;;;;;;;;;;;;7.31;75.19;96830.58;1691538;84;22075;-89
2020/12/30 09:01:35;;;;;;;;;;;;;;;7.30;75.23;96836.26;1749339;81;26225;-90
2020/12/30 09:04:22;;;;;;;;;;;;;;;7.32;75.24;96827.00;1704081;83;25620;-90
2020/12/30 09:07:08;;;;;;;;;;;;;;;7.29;75.25;96835.91;1701264;83;20358;-91
2020/12/30 09:09:55;;;;;;;;;;;;;;;7.26;75.27;96836.61;1700168;82;24880;-90
2020/12/30 09:12:41;;;;;;;;;;;;;;;7.30;75.28;96832.83;1695278;83;22221;-89
2020/12/30 09:15:28;;;;;;;;;;;;;;;7.36;75.31;96834.94;1673865;85;26140;-90
2020/12/30 09:18:17;;;;;;;;;;;;;;;7.40;75.32;96835.84;1698378;83;24889;-90
2020/12/30 09:21:05;;;;;;;;;;;;;;;7.45;75.30;96838.06;1731705;81;20293;-90
2020/12/30 09:23:58;;;;;;;;;;;;;;;7.46;75.35;96842.33;1752935;81;24985;-90
2020/12/30 09:26:46;;;;;;;;;;;;;;;7.46;75.37;96841.85;1751194;81;22370;-89
2020/12/30 09:29:35;;;;;;;;;;;;;;;7.41;75.38;96840.58;1754171;80;26190;-89
2020/12/30 09:32:22;;;;;;;;;;;;;;;7.41;75.43;96841.88;1697809;83;24631;-90
2020/12/30 09:35:08;;;;;;;;;;;;;;;7.42;75.42;96834.39;1706066;83;20288;-90
2020/12/30 09:37:58;;;;;;;;;;;;;;;7.47;75.42;96836.17;1692894;84;24887;-91
2020/12/30 09:40:44;;;;;;;;;;;;;;;7.45;75.44;96836.29;1659700;84;22121;-90
2020/12/30 09:43:13;;;;;;;;;;;;;;;;;;1749605;80;27185;-89
2020/12/30 09:46:00;;;;;;;;;;;;;;;7.51;75.46;96844.06;1749025;81;24519;-89
2020/12/30 09:48:48;;;;;;;;;;;;;;;7.57;75.49;96839.66;1754391;81;20659;-89
2020/12/30 09:51:36;;;;;;;;;;;;;;;7.62;75.49;96841.88;1692133;83;24886;-90
2020/12/30 09:54:27;;;;;;;;;;;;;;;7.66;75.52;96845.39;1705650;83;20581;-90
2020/12/30 09:57:16;;;;;;;;;;;;;;;7.67;75.56;96839.23;1710138;83;26089;-90
2020/12/30 10:00:03;;;;;;;;;;;;;;;7.69;75.57;96843.02;1704607;82;24827;-90
2020/12/30 10:02:57;;;;;;;;;;;;;;;7.63;75.59;96837.02;1671620;85;20330;-90
2020/12/30 10:05:44;;;;;;;;;;;;;;;7.54;75.62;96845.10;1757082;80;24933;-89
2020/12/30 10:08:33;;;;;;;;;;;;;;;7.54;75.61;96839.42;1751048;81;22454;-90
2020/12/30 10:11:19;;;;;;;;;;;;;;;7.48;75.63;96836.50;1700761;83;26258;-90
2020/12/30 10:14:08;;;;;;;;;;;;;;;7.39;75.64;96827.69;1694847;83;24581;-90
2020/12/30 10:16:54;;;;;;;;;;;;;;;7.35;75.63;96827.59;1703783;83;20275;-91
2020/12/30 10:19:40;;;;;;;;;;;;;;;7.32;75.66;96824.41;1693567;82;24910;-91
2020/12/30 10:22:26;;;;;;;;;;;;;;;7.26;75.65;96816.63;1753377;81;22117;-90
2020/12/30 10:25:16;;;;;;;;;;;;;;;7.23;75.67;96831.20;1752775;81;26244;-90
2020/12/30 10:28:13;;;;;;;;;;;;;;;7.19;75.68;96829.81;1754702;81;24928;-89
2020/12/30 10:30:48;;;;;;;;;;;;;;;7.20;75.70;96830.64;1753804;81;20595;-90
2020/12/30 10:33:36;;;;;;;;;;;;;;;7.17;75.72;96825.20;1694955;83;25003;-90
2020/12/30 10:36:28;;;;;;;;;;;;;;;7.15;75.76;96827.08;1696170;83;22062;-90
2020/12/30 10:39:10;;;;;;;;;;;;;;;7.18;75.77;96822.13;1752147;80;26180;-90
2020/12/30 10:41:57;;;;;;;;;;;;;;;7.31;75.81;96817.06;1698770;82;24635;-90
2020/12/30 10:44:46;;;;;;;;;;;;;;;7.38;75.86;96822.59;1700515;84;20516;-90
2020/12/30 10:47:32;;;;;;;;;;;;;;;7.48;75.89;96823.48;1693933;84;25248;-89
2020/12/30 10:50:18;;;;;;;;;;;;;;;7.58;75.93;96821.28;1694011;84;22124;-89
2020/12/30 10:53:06;;;;;;;;;;;;;;;7.64;75.99;96820.45;1696704;84;26146;-90
2020/12/30 10:55:52;;;;;;;;;;;;;;;7.67;76.04;96817.11;1688575;84;25621;-89
2020/12/30 10:58:39;;;;;;;;;;;;;;;7.69;76.06;96821.69;1695719;84;20558;-89
2020/12/30 11:01:26;;;;;;;;;;;;;;;7.72;76.07;96824.05;1679706;85;25988;-90
2020/12/30 11:04:12;;;;;;;;;;;;;;;7.72;76.09;96817.55;1688216;84;22364;-90
2020/12/30 11:06:58;;;;;;;;;;;;;;;7.81;76.11;96815.92;1672287;84;27407;-90
2020/12/30 11:09:34;;;;;;;;;;;;;;;7.84;76.12;96812.61;1689679;84;25464;-89
2020/12/30 11:12:24;;;;;;;;;;;;;;;7.74;76.13;96807.84;1752078;81;20514;-89
2020/12/30 11:15:10;;;;;;;;;;;;;;;7.75;76.14;96810.76;1702131;83;25137;-89
2020/12/30 11:17:45;;;;;;;;;;;;;;;7.79;76.13;96810.05;1753245;81;22256;-90
2020/12/30 11:20:33;;;;;;;;;;;;;;;7.84;76.15;96807.87;1745650;81;27678;-89
2020/12/30 11:23:19;;;;;;;;;;;;;;;7.92;76.15;96809.34;1696620;83;24803;-90
2020/12/30 11:26:09;;;;;;;;;;;;;;;7.98;76.16;96810.95;1671500;84;20312;-90
2020/12/30 11:28:55;;;;;;;;;;;;;;;7.99;76.17;96812.60;1692356;84;24988;-89
2020/12/30 11:31:42;;;;;;;;;;;;;;;8.06;76.18;96812.08;1692989;84;22885;-89
2020/12/30 11:34:27;;;;;;;;;;;;;;;8.10;76.17;96813.46;1699996;84;26117;-89
2020/12/30 11:37:14;;;;;;;;;;;;;;;8.12;76.17;96818.90;1749003;81;24610;-89
2020/12/30 11:40:00;;;;;;;;;;;;;;;8.19;76.16;96820.48;1751301;81;20281;-90
2020/12/30 11:42:46;;;;;;;;;;;;;;;8.29;76.15;96820.06;1697704;83;25137;-88
2020/12/30 11:45:32;;;;;;;;;;;;;;;8.26;76.15;96817.70;1749488;81;23030;-89
2020/12/30 11:48:19;;;;;;;;;;;;;;;8.26;76.12;96818.53;1752450;81;26981;-90
2020/12/30 11:51:08;;;;;;;;;;;;;;;8.33;76.10;96816.25;1753234;81;24641;-89
2020/12/30 11:53:55;;;;;;;;;;;;;;;8.18;76.09;96817.55;1751219;81;20552;-90
2020/12/30 11:56:41;;;;;;;;;;;;;;;8.00;76.08;96823.84;1696889;83;25898;-90
2020/12/30 11:59:27;;;;;;;;;;;;;;;7.91;76.06;96820.70;1750973;81;23083;-89
2020/12/30 12:02:13;;;;;;;;;;;;;;;7.83;76.02;96820.06;1750385;80;26899;-89
2020/12/30 12:05:00;;;;;;;;;;;;;;;7.98;75.97;96827.88;1693865;82;24614;-90
2020/12/30 12:07:46;;;;;;;;;;;;;;;8.01;75.97;96824.67;1694458;83;20268;-90
2020/12/30 12:10:34;;;;;;;;;;;;;;;8.07;75.99;96825.45;1695300;84;24923;-91
2020/12/30 12:13:20;;;;;;;;;;;;;;;8.17;75.99;96832.36;1691731;84;22149;-89
2020/12/30 12:16:06;;;;;;;;;;;;;;;8.26;76.00;96835.94;1693178;84;26194;-90
2020/12/30 12:18:53;;;;;;;;;;;;;;;8.24;75.99;96833.94;1663507;84;25747;-89
2020/12/30 12:21:38;;;;;;;;;;;;;;;8.23;75.99;96831.00;1662576;85;20660;-89
2020/12/30 12:24:25;;;;;;;;;;;;;;;8.10;76.01;96832.52;1666429;84;24892;-90
2020/12/30 12:27:12;;;;;;;;;;;;;;;8.04;75.98;96830.91;1678676;84;22354;-89
2020/12/30 12:29:58;;;;;;;;;;;;;;;8.00;75.98;96826.45;1697789;82;26610;-90
2020/12/30 12:32:32;;;;;;;;;;;;;;;7.99;75.95;96838.65;1675832;84;24950;-89
2020/12/30 12:35:19;;;;;;;;;;;;;;;8.03;75.94;96843.11;1681400;84;20479;-90
2020/12/30 12:38:05;;;;;;;;;;;;;;;8.03;75.92;96844.41;1679018;84;25822;-90
2020/12/30 12:40:52;;;;;;;;;;;;;;;8.04;75.92;96849.98;1710846;82;22194;-90
2020/12/30 12:43:39;;;;;;;;;;;;;;;8.02;75.91;96847.17;1708895;82;25974;-89
2020/12/30 12:46:31;;;;;;;;;;;;;;;7.99;75.92;96841.25;1677149;84;25743;-90
2020/12/30 12:49:21;;;;;;;;;;;;;;;7.98;75.93;96844.81;1698482;82;20357;-90
2020/12/30 12:52:13;;;;;;;;;;;;;;;7.98;75.93;96851.80;1706222;82;24211;-91
2020/12/30 12:54:59;;;;;;;;;;;;;;;7.98;75.93;96847.41;1723257;82;22215;-90
2020/12/30 12:57:47;;;;;;;;;;;;;;;8.02;75.92;96851.08;1711839;82;26122;-89
2020/12/30 13:00:33;;;;;;;;;;;;;;;8.01;75.93;96849.42;1678495;84;24624;-92
2020/12/30 13:03:19;;;;;;;;;;;;;;;8.02;75.93;96857.59;1686498;84;20430;-92
2020/12/30 13:06:06;;;;;;;;;;;;;;;7.98;75.94;96859.13;1677860;84;24715;-91
2020/12/30 13:08:52;;;;;;;;;;;;;;;7.97;75.93;96859.25;1680947;84;21369;-92
2020/12/30 13:11:38;;;;;;;;;;;;;;;7.96;75.94;96857.62;1654442;86;26137;-92
2020/12/30 13:14:27;;;;;;;;;;;;;;;8.05;75.92;96862.53;1711879;82;24825;-90
2020/12/30 13:17:14;;;;;;;;;;;;;;;7.99;75.92;96864.70;1709542;82;20272;-90
2020/12/30 13:20:00;;;;;;;;;;;;;;;7.92;75.92;96863.56;1715889;82;24793;-88
2020/12/30 13:22:46;;;;;;;;;;;;;;;7.92;75.88;96861.42;1708097;82;22168;-89
2020/12/30 13:25:33;;;;;;;;;;;;;;;7.89;75.90;96870.34;1677475;84;26352;-89
2020/12/30 13:28:18;;;;;;;;;;;;;;;7.89;75.89;96874.72;1700582;83;23960;-90
2020/12/30 13:31:05;;;;;;;;;;;;;;;7.93;75.86;96866.98;1672715;85;20577;-89
2020/12/30 13:33:51;;;;;;;;;;;;;;;7.99;75.86;96874.29;1692655;84;25715;-91
2020/12/30 13:36:38;;;;;;;;;;;;;;;7.95;75.87;96878.95;1710720;82;22155;-89
2020/12/30 13:39:24;;;;;;;;;;;;;;;7.89;75.88;96876.84;1677079;85;26132;-89
2020/12/30 13:42:13;;;;;;;;;;;;;;;7.88;75.87;96880.41;1687603;84;24796;-90
2020/12/30 13:45:05;;;;;;;;;;;;;;;7.88;75.85;96871.77;1691906;84;20341;-90
2020/12/30 13:47:48;;;;;;;;;;;;;;;7.84;75.82;96876.41;1691587;84;25073;-90
2020/12/30 13:50:35;;;;;;;;;;;;;;;7.78;75.83;96877.39;1693433;83;22073;-90
2020/12/30 13:53:22;;;;;;;;;;;;;;;7.72;75.82;96876.13;1697860;83;26367;-90
2020/12/30 13:56:08;;;;;;;;;;;;;;;7.73;75.81;96881.69;1691282;84;23706;-90
2020/12/30 13:58:55;;;;;;;;;;;;;;;7.74;75.78;96883.34;1694503;84;20352;-90
2020/12/30 14:01:41;;;;;;;;;;;;;;;7.76;75.78;96881.42;1694742;84;25525;-90
2020/12/30 14:04:28;;;;;;;;;;;;;;;7.79;75.77;96890.77;1693060;84;22421;-91
2020/12/30 14:07:15;;;;;;;;;;;;;;;7.78;75.77;96893.84;1699897;83;26205;-89
2020/12/30 14:10:01;;;;;;;;;;;;;;;7.72;75.77;96893.05;1688862;84;24721;-90
2020/12/30 14:12:49;;;;;;;;;;;;;;;7.70;75.78;96900.63;1673774;83;20615;-90
2020/12/30 14:15:35;;;;;;;;;;;;;;;7.64;75.78;96907.67;1656836;85;25103;-89
2020/12/30 14:18:22;;;;;;;;;;;;;;;7.60;75.75;96914.88;1700810;83;22153;-90
2020/12/30 14:21:08;;;;;;;;;;;;;;;7.59;75.74;96914.53;1676857;85;26291;-89
2020/12/30 14:23:54;;;;;;;;;;;;;;;7.51;75.74;96917.78;1682463;84;24650;-89
2020/12/30 14:26:40;;;;;;;;;;;;;;;7.45;75.75;96913.55;1674052;84;20359;-89
2020/12/30 14:29:27;;;;;;;;;;;;;;;7.37;75.75;96915.92;1695977;83;24980;-88
2020/12/30 14:32:12;;;;;;;;;;;;;;;7.23;75.76;96913.63;1695659;82;22106;-88
2020/12/30 14:34:58;;;;;;;;;;;;;;;7.12;75.74;96913.19;1675327;85;26137;-88
2020/12/30 14:37:45;;;;;;;;;;;;;;;7.08;75.73;96911.32;1698079;83;24622;-89
2020/12/30 14:40:33;;;;;;;;;;;;;;;7.17;75.74;96910.22;1695412;83;20364;-89